createdAt,value
2018-12-24T00:00:00.825Z,11.93
2018-12-24T00:01:08.111Z,11.92
2018-12-24T00:02:14.798Z,11.92
2018-12-24T00:03:21.695Z,11.93
2018-12-24T00:04:28.434Z,11.93
2018-12-24T00:05:35.377Z,11.93
2018-12-24T00:06:42.213Z,11.93
2018-12-24T00:07:49.100Z,11.92
2018-12-24T00:08:56.002Z,11.93
2018-12-24T00:10:02.621Z,11.93
2018-12-24T00:11:09.409Z,11.93
2018-12-24T00:12:16.164Z,11.91
2018-12-24T00:13:23.455Z,11.91
2018-12-24T00:14:29.943Z,11.90
2018-12-24T00:15:37.199Z,11.90
2018-12-24T00:16:43.994Z,11.90
2018-12-24T00:17:50.800Z,11.90
2018-12-24T00:18:57.472Z,11.89
2018-12-24T00:20:04.749Z,11.90
2018-12-24T00:21:11.404Z,11.89
2018-12-24T00:22:18.468Z,11.89
2018-12-24T00:23:25.684Z,11.88
2018-12-24T00:24:32.408Z,11.87
2018-12-24T00:25:39.097Z,11.88
2018-12-24T00:26:45.968Z,11.86
2018-12-24T00:27:52.736Z,11.86
2018-12-24T00:28:59.506Z,11.86
2018-12-24T00:30:06.488Z,11.83
2018-12-24T00:31:14.309Z,11.85
2018-12-24T00:32:20.193Z,11.83
2018-12-24T00:33:26.866Z,11.83
2018-12-24T00:34:33.506Z,11.81
2018-12-24T00:35:40.880Z,11.81
2018-12-24T00:36:47.536Z,11.80
2018-12-24T00:37:54.816Z,11.81
2018-12-24T00:39:01.509Z,11.79
2018-12-24T00:40:08.357Z,11.79
2018-12-24T00:41:15.008Z,11.78
2018-12-24T00:42:21.861Z,11.77
2018-12-24T00:43:28.549Z,11.75
2018-12-24T00:44:35.355Z,11.76
2018-12-24T00:45:42.277Z,11.76
2018-12-24T00:46:48.849Z,11.74
2018-12-24T00:47:56.017Z,11.74
2018-12-24T00:49:02.809Z,11.74
2018-12-24T00:50:09.541Z,11.72
2018-12-24T00:51:16.305Z,11.71
2018-12-24T00:52:23.201Z,11.71
2018-12-24T00:53:29.939Z,11.70
2018-12-24T00:54:36.740Z,11.70
2018-12-24T00:55:43.365Z,11.68
2018-12-24T00:56:50.658Z,11.68
2018-12-24T00:57:57.316Z,11.67
2018-12-24T00:59:04.482Z,11.65
2018-12-24T01:00:11.361Z,11.65
2018-12-24T01:01:18.007Z,11.62
2018-12-24T01:02:25.161Z,11.63
2018-12-24T01:03:31.792Z,11.63
2018-12-24T01:04:39.037Z,11.62
2018-12-24T01:05:45.791Z,11.61
2018-12-24T01:06:52.545Z,11.60
2018-12-24T01:07:59.648Z,11.59
2018-12-24T01:09:06.897Z,11.57
2018-12-24T01:10:13.589Z,11.57
2018-12-24T01:11:20.333Z,11.56
2018-12-24T01:12:27.096Z,11.54
2018-12-24T01:13:33.848Z,11.53
2018-12-24T01:14:40.548Z,11.51
2018-12-24T01:15:47.729Z,11.51
2018-12-24T01:16:54.466Z,11.51
2018-12-24T01:18:01.129Z,11.50
2018-12-24T01:19:08.306Z,11.48
2018-12-24T01:20:14.977Z,11.48
2018-12-24T01:21:22.236Z,11.47
2018-12-24T01:22:28.837Z,11.45
2018-12-24T01:23:36.168Z,11.44
2018-12-24T01:24:42.739Z,11.44
2018-12-24T01:25:50.044Z,11.42
2018-12-24T01:26:56.693Z,11.41
2018-12-24T01:28:03.952Z,11.41
2018-12-24T01:29:10.614Z,11.39
2018-12-24T01:30:17.857Z,11.37
2018-12-24T01:31:24.997Z,11.36
2018-12-24T01:32:31.220Z,11.36
2018-12-24T01:33:38.184Z,11.33
2018-12-24T01:34:44.861Z,11.33
2018-12-24T01:35:51.638Z,11.31
2018-12-24T01:36:58.186Z,11.28
2018-12-24T01:38:05.469Z,11.28
2018-12-24T01:39:12.117Z,11.26
2018-12-24T01:40:18.794Z,11.23
2018-12-24T01:41:25.548Z,11.22
2018-12-24T01:42:33.508Z,11.20
2018-12-24T01:43:39.469Z,11.19
2018-12-24T01:44:46.269Z,11.19
2018-12-24T01:45:53.013Z,11.18
2018-12-24T01:46:59.776Z,11.17
2018-12-24T01:48:06.633Z,11.15
2018-12-24T01:49:13.316Z,11.13
2018-12-24T01:50:20.609Z,11.11
2018-12-24T01:51:27.318Z,11.11
2018-12-24T01:52:34.025Z,11.09
2018-12-24T01:53:41.257Z,11.09
2018-12-24T01:54:48.085Z,11.05
2018-12-24T01:55:55.217Z,11.05
2018-12-24T01:57:03.252Z,11.05
2018-12-24T01:58:08.996Z,11.01
2018-12-24T01:59:16.902Z,11.00
2018-12-24T02:00:23.012Z,11.00
2018-12-24T02:01:29.684Z,10.98
2018-12-24T02:02:36.548Z,10.97
2018-12-24T02:03:43.404Z,10.96
2018-12-24T02:04:50.181Z,10.94
2018-12-24T02:05:56.776Z,10.93
2018-12-24T02:07:04.052Z,10.91
2018-12-24T02:08:10.676Z,10.91
2018-12-24T02:09:17.968Z,10.88
2018-12-24T02:10:24.948Z,10.87
2018-12-24T02:11:31.712Z,10.86
2018-12-24T02:12:42.413Z,10.83
2018-12-24T02:13:45.353Z,10.82
2018-12-24T02:14:52.228Z,10.81
2018-12-24T02:15:59.092Z,10.80
2018-12-24T02:17:06.052Z,10.80
2018-12-24T02:18:12.818Z,10.78
2018-12-24T02:19:19.556Z,10.77
2018-12-24T02:20:26.254Z,10.75
2018-12-24T02:21:33.008Z,10.74
2018-12-24T02:22:39.879Z,10.73
2018-12-24T02:23:46.621Z,10.72
2018-12-24T02:24:53.477Z,10.71
2018-12-24T02:26:00.156Z,10.69
2018-12-24T02:27:07.362Z,10.68
2018-12-24T02:28:14.098Z,10.67
2018-12-24T02:29:20.921Z,10.66
2018-12-24T02:30:27.647Z,10.63
2018-12-24T02:31:34.371Z,10.61
2018-12-24T02:32:41.073Z,10.61
2018-12-24T02:33:47.828Z,10.59
2018-12-24T02:34:54.677Z,10.59
2018-12-24T02:36:01.360Z,10.57
2018-12-24T02:37:08.681Z,10.57
2018-12-24T02:38:15.618Z,10.55
2018-12-24T02:39:22.389Z,10.53
2018-12-24T02:40:29.239Z,10.50
2018-12-24T02:41:36.093Z,10.50
2018-12-24T02:42:52.061Z,10.48
2018-12-24T02:43:49.677Z,10.46
2018-12-24T02:44:56.499Z,10.45
2018-12-24T02:46:03.155Z,10.43
2018-12-24T02:47:10.182Z,10.42
2018-12-24T02:48:16.984Z,10.40
2018-12-24T02:49:23.865Z,10.39
2018-12-24T02:50:30.619Z,10.37
2018-12-24T02:51:37.387Z,10.36
2018-12-24T02:52:44.184Z,10.35
2018-12-24T02:53:51.035Z,10.33
2018-12-24T02:54:57.710Z,10.32
2018-12-24T02:56:04.497Z,10.32
2018-12-24T02:57:11.578Z,10.31
2018-12-24T02:58:18.302Z,10.29
2018-12-24T02:59:25.165Z,10.27
2018-12-24T03:00:31.913Z,10.27
2018-12-24T03:01:38.701Z,10.25
2018-12-24T03:02:45.573Z,10.23
2018-12-24T03:03:52.428Z,10.21
2018-12-24T03:04:59.128Z,10.20
2018-12-24T03:06:05.953Z,10.19
2018-12-24T03:07:12.607Z,10.17
2018-12-24T03:08:19.901Z,10.15
2018-12-24T03:09:26.668Z,10.16
2018-12-24T03:10:33.301Z,10.13
2018-12-24T03:11:40.506Z,10.12
2018-12-24T03:12:47.372Z,10.09
2018-12-24T03:13:54.225Z,10.10
2018-12-24T03:15:00.868Z,10.08
2018-12-24T03:16:07.984Z,10.07
2018-12-24T03:17:14.730Z,10.05
2018-12-24T03:18:21.608Z,10.01
2018-12-24T03:19:28.358Z,10.02
2018-12-24T03:20:35.226Z,10.01
2018-12-24T03:21:42.105Z,9.99
2018-12-24T03:22:48.870Z,9.97
2018-12-24T03:23:55.538Z,9.97
2018-12-24T03:25:02.307Z,9.96
2018-12-24T03:26:09.132Z,9.94
2018-12-24T03:27:16.342Z,9.92
2018-12-24T03:28:23.192Z,9.90
2018-12-24T03:29:29.866Z,9.90
2018-12-24T03:30:36.723Z,9.87
2018-12-24T03:31:43.379Z,9.87
2018-12-24T03:32:50.885Z,9.85
2018-12-24T03:33:57.337Z,9.83
2018-12-24T03:35:04.190Z,9.82
2018-12-24T03:36:10.840Z,9.80
2018-12-24T03:37:17.534Z,9.80
2018-12-24T03:38:24.294Z,9.79
2018-12-24T03:39:31.029Z,9.78
2018-12-24T03:40:37.580Z,9.75
2018-12-24T03:41:44.885Z,9.75
2018-12-24T03:42:51.598Z,9.75
2018-12-24T03:43:58.277Z,9.72
2018-12-24T03:45:05.228Z,9.70
2018-12-24T03:46:11.798Z,9.70
2018-12-24T03:47:19.041Z,9.68
2018-12-24T03:48:25.788Z,9.66
2018-12-24T03:49:32.449Z,9.65
2018-12-24T03:50:39.827Z,9.63
2018-12-24T03:51:46.478Z,9.62
2018-12-24T03:52:53.749Z,9.61
2018-12-24T03:54:00.451Z,9.60
2018-12-24T03:55:07.288Z,9.58
2018-12-24T03:56:14.037Z,9.56
2018-12-24T03:57:21.331Z,9.57
2018-12-24T03:58:28.006Z,9.54
2018-12-24T03:59:35.302Z,9.53
2018-12-24T04:00:42.021Z,9.53
2018-12-24T04:01:48.789Z,9.51
2018-12-24T04:02:55.672Z,9.49
2018-12-24T04:04:02.549Z,9.48
2018-12-24T04:05:09.182Z,9.47
2018-12-24T04:06:16.369Z,9.45
2018-12-24T04:07:23.228Z,9.45
2018-12-24T04:08:30.424Z,9.41
2018-12-24T04:09:37.305Z,9.41
2018-12-24T04:10:43.927Z,9.41
2018-12-24T04:11:51.215Z,9.39
2018-12-24T04:12:57.886Z,9.38
2018-12-24T04:14:04.862Z,9.36
2018-12-24T04:15:11.630Z,9.36
2018-12-24T04:16:18.479Z,9.34
2018-12-24T04:17:25.452Z,9.33
2018-12-24T04:18:32.241Z,9.32
2018-12-24T04:19:38.972Z,9.30
2018-12-24T04:20:45.778Z,9.29
2018-12-24T04:21:52.513Z,9.28
2018-12-24T04:22:59.284Z,9.27
2018-12-24T04:24:06.053Z,9.25
2018-12-24T04:25:12.834Z,9.23
2018-12-24T04:26:19.598Z,9.23
2018-12-24T04:27:26.323Z,9.21
2018-12-24T04:28:33.506Z,9.20
2018-12-24T04:29:40.374Z,9.19
2018-12-24T04:30:47.063Z,9.16
2018-12-24T04:31:53.900Z,9.16
2018-12-24T04:33:00.568Z,9.15
2018-12-24T04:34:07.341Z,9.15
2018-12-24T04:35:13.942Z,9.13
2018-12-24T04:36:21.142Z,9.12
2018-12-24T04:37:27.725Z,9.11
2018-12-24T04:38:34.913Z,9.10
2018-12-24T04:39:41.596Z,9.09
2018-12-24T04:40:48.366Z,9.08
2018-12-24T04:41:55.245Z,9.07
2018-12-24T04:43:01.969Z,9.06
2018-12-24T04:44:08.742Z,9.03
2018-12-24T04:45:15.592Z,9.03
2018-12-24T04:46:22.283Z,9.02
2018-12-24T04:47:29.033Z,9.01
2018-12-24T04:48:35.788Z,9.00
2018-12-24T04:49:42.557Z,9.00
2018-12-24T04:50:49.241Z,8.99
2018-12-24T04:51:55.880Z,8.97
2018-12-24T04:53:03.164Z,8.96
2018-12-24T04:54:09.943Z,8.95
2018-12-24T04:55:16.796Z,8.94
2018-12-24T04:56:23.573Z,8.94
2018-12-24T04:57:30.220Z,8.92
2018-12-24T04:58:37.505Z,8.91
2018-12-24T04:59:44.260Z,8.90
2018-12-24T05:00:51.044Z,8.90
2018-12-24T05:01:57.693Z,8.90
2018-12-24T05:03:04.854Z,8.87
2018-12-24T05:04:12.049Z,8.87
2018-12-24T05:05:18.697Z,8.85
2018-12-24T05:06:25.893Z,8.85
2018-12-24T05:07:32.549Z,8.84
2018-12-24T05:08:39.304Z,8.82
2018-12-24T05:09:46.481Z,8.81
2018-12-24T05:10:53.170Z,8.80
2018-12-24T05:11:59.817Z,8.79
2018-12-24T05:13:07.186Z,8.79
2018-12-24T05:14:13.965Z,8.78
2018-12-24T05:15:20.705Z,8.76
2018-12-24T05:16:29.324Z,8.75
2018-12-24T05:17:34.449Z,8.74
2018-12-24T05:18:41.624Z,8.73
2018-12-24T05:19:48.801Z,8.72
2018-12-24T05:20:55.564Z,8.71
2018-12-24T05:22:02.279Z,8.70
2018-12-24T05:23:09.151Z,8.69
2018-12-24T05:24:15.689Z,8.67
2018-12-24T05:25:22.938Z,8.67
2018-12-24T05:26:29.719Z,8.67
2018-12-24T05:27:36.453Z,8.66
2018-12-24T05:28:43.129Z,8.63
2018-12-24T05:29:50.345Z,8.63
2018-12-24T05:30:56.965Z,8.62
2018-12-24T05:32:04.265Z,8.61
2018-12-24T05:33:10.861Z,8.60
2018-12-24T05:34:18.069Z,8.59
2018-12-24T05:35:24.777Z,8.58
2018-12-24T05:36:31.501Z,8.57
2018-12-24T05:37:38.281Z,8.58
2018-12-24T05:38:45.037Z,8.55
2018-12-24T05:39:51.788Z,8.55
2018-12-24T05:40:58.474Z,8.53
2018-12-24T05:42:05.269Z,8.53
2018-12-24T05:43:11.929Z,8.52
2018-12-24T05:44:19.148Z,8.52
2018-12-24T05:45:25.785Z,8.49
2018-12-24T05:46:32.480Z,8.49
2018-12-24T05:47:39.273Z,8.48
2018-12-24T05:48:46.033Z,8.48
2018-12-24T05:49:52.785Z,8.46
2018-12-24T05:50:59.662Z,8.46
2018-12-24T05:52:06.357Z,8.44
2018-12-24T05:53:12.997Z,8.45
2018-12-24T05:54:20.256Z,8.42
2018-12-24T05:55:26.811Z,8.42
2018-12-24T05:56:33.960Z,8.41
2018-12-24T05:57:41.113Z,8.41
2018-12-24T05:58:48.245Z,8.39
2018-12-24T05:59:55.704Z,8.39
2018-12-24T06:01:02.393Z,8.38
2018-12-24T06:02:09.652Z,8.37
2018-12-24T06:03:16.448Z,8.36
2018-12-24T06:04:23.227Z,8.35
2018-12-24T06:05:30.062Z,8.33
2018-12-24T06:06:36.825Z,8.35
2018-12-24T06:07:43.497Z,8.34
2018-12-24T06:08:50.373Z,8.33
2018-12-24T06:09:57.112Z,8.32
2018-12-24T06:11:03.884Z,8.31
2018-12-24T06:12:10.646Z,8.30
2018-12-24T06:13:17.333Z,8.29
2018-12-24T06:14:24.172Z,8.29
2018-12-24T06:15:30.836Z,8.29
2018-12-24T06:16:37.620Z,8.27
2018-12-24T06:17:44.369Z,8.26
2018-12-24T06:18:51.257Z,8.26
2018-12-24T06:19:57.860Z,8.24
2018-12-24T06:21:05.245Z,8.23
2018-12-24T06:22:12.430Z,8.21
2018-12-24T06:23:18.989Z,8.21
2018-12-24T06:24:25.727Z,8.21
2018-12-24T06:25:32.962Z,8.21
2018-12-24T06:26:39.728Z,8.19
2018-12-24T06:27:46.380Z,8.20
2018-12-24T06:28:53.668Z,8.19
2018-12-24T06:30:00.328Z,8.18
2018-12-24T06:31:07.552Z,8.16
2018-12-24T06:32:13.876Z,8.15
2018-12-24T06:33:20.654Z,8.14
2018-12-24T06:34:27.373Z,8.14
2018-12-24T06:35:34.146Z,8.13
2018-12-24T06:36:41.319Z,8.12
2018-12-24T06:37:47.937Z,8.12
2018-12-24T06:38:55.173Z,8.10
2018-12-24T06:40:01.770Z,8.10
2018-12-24T06:41:08.689Z,8.07
2018-12-24T06:42:15.461Z,8.08
2018-12-24T06:43:22.217Z,8.07
2018-12-24T06:44:28.900Z,8.07
2018-12-24T06:45:35.646Z,8.07
2018-12-24T06:46:42.417Z,8.05
2018-12-24T06:47:49.067Z,8.04
2018-12-24T06:48:56.262Z,8.02
2018-12-24T06:50:02.909Z,8.02
2018-12-24T06:51:09.692Z,8.02
2018-12-24T06:52:16.358Z,7.99
2018-12-24T06:53:23.208Z,8.00
2018-12-24T06:54:29.896Z,8.00
2018-12-24T06:55:36.744Z,7.99
2018-12-24T06:56:43.511Z,7.98
2018-12-24T06:57:50.388Z,7.98
2018-12-24T06:58:57.008Z,7.98
2018-12-24T07:00:03.826Z,7.96
2018-12-24T07:01:10.675Z,7.95
2018-12-24T07:02:17.330Z,7.95
2018-12-24T07:03:24.605Z,7.95
2018-12-24T07:04:31.290Z,7.94
2018-12-24T07:05:38.053Z,7.94
2018-12-24T07:06:44.797Z,7.93
2018-12-24T07:07:51.574Z,7.91
2018-12-24T07:08:58.200Z,7.89
2018-12-24T07:10:05.416Z,7.90
2018-12-24T07:11:12.260Z,7.88
2018-12-24T07:12:19.636Z,7.85
2018-12-24T07:13:26.229Z,7.87
2018-12-24T07:14:33.424Z,7.84
2018-12-24T07:15:40.341Z,7.82
2018-12-24T07:16:47.008Z,7.84
2018-12-24T07:17:53.794Z,7.83
2018-12-24T07:19:00.540Z,7.81
2018-12-24T07:20:07.426Z,7.79
2018-12-24T07:21:14.124Z,7.79
2018-12-24T07:22:21.352Z,7.78
2018-12-24T07:23:28.161Z,7.77
2018-12-24T07:24:35.107Z,7.77
2018-12-24T07:25:41.773Z,7.76
2018-12-24T07:26:48.818Z,7.75
2018-12-24T07:27:56.004Z,7.74
2018-12-24T07:29:02.685Z,7.74
2018-12-24T07:30:09.353Z,7.72
2018-12-24T07:31:17.854Z,7.72
2018-12-24T07:32:23.269Z,7.72
2018-12-24T07:33:29.813Z,7.71
2018-12-24T07:34:37.093Z,7.69
2018-12-24T07:35:43.905Z,7.69
2018-12-24T07:36:51.148Z,7.69
2018-12-24T07:37:57.830Z,7.67
2018-12-24T07:39:04.882Z,7.66
2018-12-24T07:40:11.528Z,7.65
2018-12-24T07:41:18.714Z,7.63
2018-12-24T07:42:25.583Z,7.64
2018-12-24T07:43:32.238Z,7.62
2018-12-24T07:44:40.029Z,7.60
2018-12-24T07:45:46.205Z,7.59
2018-12-24T07:46:53.377Z,7.58
2018-12-24T07:47:59.996Z,7.58
2018-12-24T07:49:07.292Z,7.57
2018-12-24T07:50:13.911Z,7.56
2018-12-24T07:51:21.124Z,7.55
2018-12-24T07:52:27.792Z,7.54
2018-12-24T07:53:35.330Z,7.52
2018-12-24T07:54:41.524Z,7.52
2018-12-24T07:55:48.160Z,7.50
2018-12-24T07:56:55.268Z,7.49
2018-12-24T07:58:02.441Z,7.49
2018-12-24T07:59:09.094Z,7.49
2018-12-24T08:00:16.224Z,7.47
2018-12-24T08:01:23.441Z,7.46
2018-12-24T08:02:30.210Z,7.45
2018-12-24T08:03:37.380Z,7.45
2018-12-24T08:04:44.272Z,7.44
2018-12-24T08:05:50.996Z,7.42
2018-12-24T08:06:57.792Z,7.41
2018-12-24T08:08:04.489Z,7.43
2018-12-24T08:09:11.163Z,7.40
2018-12-24T08:10:17.881Z,7.39
2018-12-24T08:11:24.648Z,7.39
2018-12-24T08:12:31.401Z,7.37
2018-12-24T08:13:38.542Z,7.36
2018-12-24T08:14:45.175Z,7.37
2018-12-24T08:15:52.544Z,7.36
2018-12-24T08:16:59.177Z,7.37
2018-12-24T08:18:06.457Z,7.36
2018-12-24T08:19:13.116Z,7.34
2018-12-24T08:20:20.085Z,7.33
2018-12-24T08:21:27.309Z,7.32
2018-12-24T08:22:33.920Z,7.32
2018-12-24T08:23:41.146Z,7.31
2018-12-24T08:24:48.177Z,7.31
2018-12-24T08:25:56.376Z,7.29
2018-12-24T08:27:02.121Z,7.28
2018-12-24T08:28:08.885Z,7.28
2018-12-24T08:29:15.536Z,7.27
2018-12-24T08:30:22.689Z,7.26
2018-12-24T08:31:30.193Z,7.25
2018-12-24T08:32:37.064Z,7.25
2018-12-24T08:33:43.739Z,7.25
2018-12-24T08:34:50.598Z,7.23
2018-12-24T08:35:57.289Z,7.23
2018-12-24T08:37:04.021Z,7.21
2018-12-24T08:38:10.685Z,7.21
2018-12-24T08:39:17.368Z,7.20
2018-12-24T08:40:24.109Z,7.19
2018-12-24T08:41:30.953Z,7.19
2018-12-24T08:42:37.590Z,7.19
2018-12-24T08:43:44.825Z,7.18
2018-12-24T08:44:51.581Z,7.16
2018-12-24T08:45:58.361Z,7.17
2018-12-24T08:47:05.254Z,7.17
2018-12-24T08:48:11.902Z,7.17
2018-12-24T08:49:18.845Z,7.15
2018-12-24T08:50:25.981Z,7.16
2018-12-24T08:51:33.148Z,7.14
2018-12-24T08:52:40.272Z,7.15
2018-12-24T08:53:47.449Z,7.14
2018-12-24T08:54:54.141Z,7.14
2018-12-24T08:56:00.774Z,7.13
2018-12-24T08:57:07.557Z,7.13
2018-12-24T08:58:14.201Z,7.11
2018-12-24T08:59:20.968Z,7.12
2018-12-24T09:00:27.725Z,7.12
2018-12-24T09:01:34.941Z,7.11
2018-12-24T09:02:41.665Z,7.10
2018-12-24T09:03:48.310Z,7.10
2018-12-24T09:04:55.403Z,7.09
2018-12-24T09:06:02.589Z,7.09
2018-12-24T09:07:09.409Z,7.08
2018-12-24T09:08:15.986Z,7.08
2018-12-24T09:09:23.217Z,7.08
2018-12-24T09:10:29.764Z,7.08
2018-12-24T09:11:37.128Z,7.07
2018-12-24T09:12:43.761Z,7.09
2018-12-24T09:13:51.066Z,7.09
2018-12-24T09:14:57.709Z,7.09
2018-12-24T09:16:04.995Z,7.09
2018-12-24T09:17:11.679Z,7.09
2018-12-24T09:18:18.378Z,7.08
2018-12-24T09:19:25.500Z,7.08
2018-12-24T09:20:32.268Z,7.07
2018-12-24T09:21:39.630Z,7.07
2018-12-24T09:22:46.588Z,7.07
2018-12-24T09:23:53.281Z,7.07
2018-12-24T09:25:00.037Z,7.07
2018-12-24T09:26:06.808Z,7.07
2018-12-24T09:27:13.593Z,7.05
2018-12-24T09:28:20.372Z,7.06
2018-12-24T09:29:27.448Z,7.05
2018-12-24T09:30:34.173Z,7.05
2018-12-24T09:31:40.873Z,7.04
2018-12-24T09:32:47.966Z,7.06
2018-12-24T09:33:55.280Z,7.05
2018-12-24T09:35:01.961Z,7.04
2018-12-24T09:36:08.717Z,7.04
2018-12-24T09:37:15.313Z,7.02
2018-12-24T09:38:22.576Z,7.02
2018-12-24T09:39:29.223Z,7.03
2018-12-24T09:40:36.764Z,7.03
2018-12-24T09:41:43.368Z,7.03
2018-12-24T09:42:51.692Z,7.04
2018-12-24T09:43:56.781Z,7.02
2018-12-24T09:45:03.860Z,7.02
2018-12-24T09:46:11.068Z,7.01
2018-12-24T09:47:17.600Z,7.01
2018-12-24T09:48:24.888Z,7.01
2018-12-24T09:49:31.638Z,7.01
2018-12-24T09:50:38.397Z,7.01
2018-12-24T09:51:45.179Z,7.00
2018-12-24T09:52:52.048Z,7.01
2018-12-24T09:53:58.597Z,7.01
2018-12-24T09:55:05.981Z,7.00
2018-12-24T09:56:12.757Z,6.99
2018-12-24T09:57:19.424Z,7.02
2018-12-24T09:58:26.188Z,7.02
2018-12-24T09:59:32.943Z,7.01
2018-12-24T10:00:39.696Z,7.02
2018-12-24T10:01:46.474Z,7.04
2018-12-24T10:02:53.336Z,7.01
2018-12-24T10:04:02.993Z,7.01
2018-12-24T10:05:07.379Z,7.02
2018-12-24T10:06:14.413Z,7.02
2018-12-24T10:07:21.301Z,7.02
2018-12-24T10:08:27.988Z,7.03
2018-12-24T10:09:34.841Z,7.04
2018-12-24T10:10:41.472Z,7.05
2018-12-24T10:11:48.633Z,7.06
2018-12-24T10:12:55.853Z,7.06
2018-12-24T10:14:02.732Z,7.07
2018-12-24T10:15:09.612Z,7.07
2018-12-24T10:16:16.415Z,7.07
2018-12-24T10:17:23.333Z,7.08
2018-12-24T10:18:30.013Z,7.06
2018-12-24T10:19:36.890Z,7.07
2018-12-24T10:20:43.659Z,7.07
2018-12-24T10:21:50.494Z,7.08
2018-12-24T10:22:57.167Z,7.08
2018-12-24T10:24:04.546Z,7.10
2018-12-24T10:25:11.303Z,7.10
2018-12-24T10:26:18.067Z,7.08
2018-12-24T10:27:25.132Z,7.11
2018-12-24T10:28:31.906Z,7.10
2018-12-24T10:29:38.695Z,7.10
2018-12-24T10:30:45.893Z,7.12
2018-12-24T10:31:52.537Z,7.11
2018-12-24T10:32:59.970Z,7.11
2018-12-24T10:34:06.682Z,7.13
2018-12-24T10:35:13.701Z,7.14
2018-12-24T10:36:20.599Z,7.14
2018-12-24T10:37:27.354Z,7.16
2018-12-24T10:38:34.225Z,7.17
2018-12-24T10:39:40.927Z,7.17
2018-12-24T10:40:47.762Z,7.18
2018-12-24T10:41:54.932Z,7.19
2018-12-24T10:43:01.657Z,7.20
2018-12-24T10:44:08.625Z,7.21
2018-12-24T10:45:16.903Z,7.22
2018-12-24T10:46:22.222Z,7.21
2018-12-24T10:47:29.109Z,7.23
2018-12-24T10:48:36.212Z,7.23
2018-12-24T10:49:43.226Z,7.24
2018-12-24T10:50:50.082Z,7.27
2018-12-24T10:51:56.830Z,7.26
2018-12-24T10:53:04.012Z,7.27
2018-12-24T10:54:10.335Z,7.29
2018-12-24T10:55:17.369Z,7.28
2018-12-24T10:56:24.147Z,7.30
2018-12-24T10:57:30.801Z,7.31
2018-12-24T10:58:37.651Z,7.31
2018-12-24T10:59:45.954Z,7.31
2018-12-24T11:00:51.761Z,7.33
2018-12-24T11:01:57.920Z,7.34
2018-12-24T11:03:04.788Z,7.33
2018-12-24T11:04:11.578Z,7.32
2018-12-24T11:05:18.361Z,7.35
2018-12-24T11:06:27.551Z,7.35
2018-12-24T11:07:31.822Z,7.35
2018-12-24T11:08:38.659Z,7.35
2018-12-24T11:09:45.430Z,7.35
2018-12-24T11:10:52.392Z,7.37
2018-12-24T11:11:59.106Z,7.37
2018-12-24T11:13:06.105Z,7.38
2018-12-24T11:14:13.100Z,7.38
2018-12-24T11:15:25.039Z,7.40
2018-12-24T11:16:29.670Z,7.41
2018-12-24T11:17:33.881Z,7.41
2018-12-24T11:18:40.550Z,7.42
2018-12-24T11:19:47.336Z,7.44
2018-12-24T11:20:54.122Z,7.45
2018-12-24T11:22:00.827Z,7.44
2018-12-24T11:23:07.912Z,7.46
2018-12-24T11:24:14.676Z,7.45
2018-12-24T11:25:21.603Z,7.47
2018-12-24T11:26:28.318Z,7.46
2018-12-24T11:27:35.160Z,7.46
2018-12-24T11:28:41.925Z,7.47
2018-12-24T11:29:48.713Z,7.49
2018-12-24T11:30:55.460Z,7.49
2018-12-24T11:32:02.285Z,7.48
2018-12-24T11:33:09.050Z,7.50
2018-12-24T11:34:15.824Z,7.50
2018-12-24T11:35:22.581Z,7.52
2018-12-24T11:36:29.376Z,7.51
2018-12-24T11:37:36.254Z,7.53
2018-12-24T11:38:42.945Z,7.53
2018-12-24T11:39:49.746Z,7.54
2018-12-24T11:40:56.848Z,7.55
2018-12-24T11:42:03.745Z,7.55
2018-12-24T11:43:10.641Z,7.56
2018-12-24T11:44:17.322Z,7.56
2018-12-24T11:45:24.107Z,7.57
2018-12-24T11:46:30.813Z,7.56
2018-12-24T11:47:37.660Z,7.57
2018-12-24T11:48:44.715Z,7.57
2018-12-24T11:49:51.543Z,7.59
2018-12-24T11:50:58.205Z,7.61
2018-12-24T11:52:05.051Z,7.59
2018-12-24T11:53:13.007Z,7.62
2018-12-24T11:54:21.005Z,7.61
2018-12-24T11:55:26.191Z,7.61
2018-12-24T11:56:32.926Z,7.62
2018-12-24T11:57:39.761Z,7.64
2018-12-24T11:58:46.526Z,7.64
2018-12-24T11:59:53.357Z,7.63
2018-12-24T12:01:00.129Z,7.64
2018-12-24T12:02:10.124Z,7.64
2018-12-24T12:03:13.710Z,7.66
2018-12-24T12:04:20.485Z,7.65
2018-12-24T12:05:27.328Z,7.66
2018-12-24T12:06:34.286Z,7.63
2018-12-24T12:07:40.983Z,7.65
2018-12-24T12:08:48.361Z,7.66
2018-12-24T12:09:55.393Z,7.65
2018-12-24T12:11:02.179Z,7.65
2018-12-24T12:12:08.922Z,7.65
2018-12-24T12:13:15.692Z,7.65
2018-12-24T12:14:22.465Z,7.65
2018-12-24T12:15:29.799Z,7.64
2018-12-24T12:16:36.314Z,7.65
2018-12-24T12:17:43.168Z,7.66
2018-12-24T12:18:49.917Z,7.66
2018-12-24T12:19:56.598Z,7.66
2018-12-24T12:21:03.870Z,7.66
2018-12-24T12:22:10.538Z,7.66
2018-12-24T12:23:17.256Z,7.66
2018-12-24T12:24:24.226Z,7.67
2018-12-24T12:25:31.153Z,7.66
2018-12-24T12:26:40.376Z,7.68
2018-12-24T12:27:44.674Z,7.67
2018-12-24T12:28:51.542Z,7.66
2018-12-24T12:29:58.198Z,7.67
2018-12-24T12:31:05.038Z,7.68
2018-12-24T12:32:11.732Z,7.68
2018-12-24T12:33:18.509Z,7.67
2018-12-24T12:34:25.276Z,7.68
2018-12-24T12:35:32.029Z,7.68
2018-12-24T12:36:39.130Z,7.67
2018-12-24T12:37:46.400Z,7.68
2018-12-24T12:38:52.746Z,7.68
2018-12-24T12:39:59.601Z,7.68
2018-12-24T12:41:06.973Z,7.68
2018-12-24T12:42:13.457Z,7.69
2018-12-24T12:43:20.735Z,7.69
2018-12-24T12:44:26.974Z,7.69
2018-12-24T12:45:33.851Z,7.70
2018-12-24T12:46:41.282Z,7.70
2018-12-24T12:47:47.538Z,7.69
2018-12-24T12:48:54.356Z,7.70
2018-12-24T12:50:01.160Z,7.70
2018-12-24T12:51:08.153Z,7.72
2018-12-24T12:52:14.841Z,7.71
2018-12-24T12:53:25.401Z,7.70
2018-12-24T12:54:28.627Z,7.72
2018-12-24T12:55:35.570Z,7.73
2018-12-24T12:56:42.090Z,7.73
2018-12-24T12:57:48.913Z,7.73
2018-12-24T12:58:55.801Z,7.74
2018-12-24T13:00:03.090Z,7.74
2018-12-24T13:01:09.639Z,7.74
2018-12-24T13:02:16.568Z,7.74
2018-12-24T13:03:23.721Z,7.75
2018-12-24T13:04:30.389Z,7.75
2018-12-24T13:05:37.224Z,7.76
2018-12-24T13:06:44.051Z,7.77
2018-12-24T13:07:50.999Z,7.77
2018-12-24T13:08:57.772Z,7.79
2018-12-24T13:10:04.740Z,7.77
2018-12-24T13:11:11.667Z,7.78
2018-12-24T13:12:20.559Z,7.79
2018-12-24T13:13:25.302Z,7.78
2018-12-24T13:14:32.302Z,7.79
2018-12-24T13:15:39.041Z,7.80
2018-12-24T13:16:46.244Z,7.81
2018-12-24T13:17:52.841Z,7.81
2018-12-24T13:19:04.655Z,7.82
2018-12-24T13:20:06.858Z,7.81
2018-12-24T13:21:13.929Z,7.82
2018-12-24T13:22:20.947Z,7.82
2018-12-24T13:23:27.575Z,7.82
2018-12-24T13:24:34.418Z,7.83
2018-12-24T13:25:41.133Z,7.83
2018-12-24T13:26:47.890Z,7.84
2018-12-24T13:27:54.685Z,7.85
2018-12-24T13:29:01.482Z,7.85
2018-12-24T13:30:08.337Z,7.86
2018-12-24T13:31:15.065Z,7.86
2018-12-24T13:32:23.318Z,7.86
2018-12-24T13:33:28.733Z,7.88
2018-12-24T13:34:36.112Z,7.86
2018-12-24T13:35:42.307Z,7.88
2018-12-24T13:36:49.038Z,7.88
2018-12-24T13:37:55.817Z,7.87
2018-12-24T13:39:02.870Z,7.90
2018-12-24T13:40:09.797Z,7.90
2018-12-24T13:41:16.501Z,7.90
2018-12-24T13:42:23.398Z,7.90
2018-12-24T13:43:30.211Z,7.89
2018-12-24T13:44:37.079Z,7.89
2018-12-24T13:45:48.622Z,7.90
2018-12-24T13:46:51.050Z,7.89
2018-12-24T13:47:57.865Z,7.91
2018-12-24T13:49:05.089Z,7.91
2018-12-24T13:50:12.862Z,7.90
2018-12-24T13:51:18.595Z,7.92
2018-12-24T13:52:25.701Z,7.91
2018-12-24T13:53:32.174Z,7.90
2018-12-24T13:54:39.063Z,7.92
2018-12-24T13:55:45.901Z,7.90
2018-12-24T13:56:52.689Z,7.91
2018-12-24T13:57:59.582Z,7.91
2018-12-24T13:59:06.628Z,7.91
2018-12-24T14:00:13.433Z,7.90
2018-12-24T14:01:20.647Z,7.91
2018-12-24T14:02:27.441Z,7.91
2018-12-24T14:03:34.383Z,7.91
2018-12-24T14:04:41.434Z,7.90
2018-12-24T14:05:48.189Z,7.91
2018-12-24T14:06:55.142Z,7.90
2018-12-24T14:08:02.951Z,7.91
2018-12-24T14:09:09.252Z,7.90
2018-12-24T14:10:15.896Z,7.91
2018-12-24T14:11:22.802Z,7.91
2018-12-24T14:12:29.513Z,7.92
2018-12-24T14:13:36.424Z,7.92
2018-12-24T14:14:43.355Z,7.90
2018-12-24T14:15:50.437Z,7.91
2018-12-24T14:16:57.191Z,7.92
2018-12-24T14:18:04.032Z,7.91
2018-12-24T14:19:11.140Z,7.92
2018-12-24T14:20:18.072Z,7.92
2018-12-24T14:21:25.394Z,7.90
2018-12-24T14:22:31.700Z,7.92
2018-12-24T14:23:38.641Z,7.90
2018-12-24T14:24:45.364Z,7.90
2018-12-24T14:25:52.212Z,7.89
2018-12-24T14:26:58.933Z,7.90
2018-12-24T14:28:05.818Z,7.89
2018-12-24T14:29:12.580Z,7.90
2018-12-24T14:30:21.158Z,7.90
2018-12-24T14:31:26.417Z,7.88
2018-12-24T14:32:33.231Z,7.88
2018-12-24T14:33:40.102Z,7.89
2018-12-24T14:34:46.933Z,7.89
2018-12-24T14:35:53.942Z,7.89
2018-12-24T14:37:00.670Z,7.86
2018-12-24T14:38:07.599Z,7.88
2018-12-24T14:39:14.330Z,7.89
2018-12-24T14:40:21.270Z,7.89
2018-12-24T14:41:28.269Z,7.88
2018-12-24T14:42:35.435Z,7.88